createdAt,value
2022-08-05T00:00:17.217Z,96.89
2022-08-05T00:02:50.725Z,97.33
2022-08-05T00:06:02.723Z,97.00
2022-08-05T00:08:05.680Z,98.26
2022-08-05T00:10:52.223Z,97.11
2022-08-05T00:13:19.876Z,97.55
2022-08-05T00:15:56.450Z,99.16
2022-08-05T00:18:27.823Z,98.24
2022-08-05T00:20:58.394Z,98.91
2022-08-05T00:23:44.325Z,98.77
2022-08-05T00:26:12.946Z,98.68
2022-08-05T00:28:39.730Z,99.19
2022-08-05T00:31:07.613Z,99.91
2022-08-05T00:34:54.150Z,99.95
2022-08-05T00:37:09.764Z,99.54
2022-08-05T00:39:13.559Z,99.79
2022-08-05T00:41:55.126Z,100.00
2022-08-05T00:44:30.554Z,98.51
2022-08-05T00:47:02.209Z,99.16
2022-08-05T00:49:32.731Z,98.50
2022-08-05T00:52:11.216Z,98.70
2022-08-05T00:54:38.917Z,99.23
2022-08-05T00:57:05.867Z,98.62
2022-08-05T00:59:34.547Z,98.50
2022-08-05T01:02:11.427Z,99.13
2022-08-05T01:04:38.128Z,98.34
2022-08-05T01:07:23.489Z,99.01
2022-08-05T01:09:57.177Z,98.80
2022-08-05T01:12:29.780Z,98.57
2022-08-05T01:15:04.142Z,98.74
2022-08-05T01:17:39.865Z,98.50
2022-08-05T01:20:40.748Z,98.88
2022-08-05T01:23:23.687Z,98.02
2022-08-05T01:26:18.976Z,97.21
2022-08-05T01:28:48.999Z,96.63
2022-08-05T01:31:19.652Z,95.70
2022-08-05T01:33:55.332Z,96.17
2022-08-05T01:36:28.106Z,96.57
2022-08-05T01:38:56.663Z,96.36
2022-08-05T01:41:29.496Z,96.72
2022-08-05T01:43:57.092Z,96.61
2022-08-05T01:46:42.134Z,96.44
2022-08-05T01:49:23.817Z,95.45
2022-08-05T01:51:58.444Z,95.96
2022-08-05T01:54:31.745Z,95.36
2022-08-05T01:58:11.869Z,94.78
2022-08-05T01:59:50.935Z,95.64
2022-08-05T02:02:26.285Z,95.54
2022-08-05T02:05:00.764Z,94.41
2022-08-05T02:07:30.445Z,94.90
2022-08-05T02:09:58.549Z,95.67
2022-08-05T02:12:51.795Z,96.06
2022-08-05T02:15:34.230Z,95.46
2022-08-05T02:18:32.692Z,95.37
2022-08-05T02:21:46.764Z,96.04
2022-08-05T02:24:23.129Z,96.49
2022-08-05T02:26:59.973Z,97.35
2022-08-05T02:30:00.052Z,97.54
2022-08-05T02:32:30.862Z,97.24
2022-08-05T02:35:13.811Z,97.25
2022-08-05T02:37:47.893Z,97.46
2022-08-05T02:40:23.061Z,97.53
2022-08-05T02:42:54.331Z,97.75
2022-08-05T02:45:24.183Z,98.48
2022-08-05T02:47:58.414Z,97.98
2022-08-05T02:50:38.517Z,97.26
2022-08-05T02:53:18.976Z,97.95
2022-08-05T02:56:00.295Z,99.62
2022-08-05T02:58:34.559Z,98.76
2022-08-05T03:01:02.887Z,97.90
2022-08-05T03:03:34.206Z,98.99
2022-08-05T03:06:53.647Z,98.65
2022-08-05T03:09:07.908Z,99.33
2022-08-05T03:11:54.843Z,100.00
2022-08-05T03:14:21.779Z,99.79
2022-08-05T03:16:48.522Z,100.00
2022-08-05T03:19:20.386Z,100.00
2022-08-05T03:22:01.556Z,100.00
2022-08-05T03:24:30.862Z,100.00
2022-08-05T03:27:00.280Z,100.00
2022-08-05T03:29:44.682Z,100.00
2022-08-05T03:32:14.410Z,100.00
2022-08-05T03:34:50.683Z,100.00
2022-08-05T03:37:21.613Z,100.00
2022-08-05T03:40:00.999Z,100.00
2022-08-05T03:42:31.965Z,100.00
2022-08-05T03:44:59.465Z,100.00
2022-08-05T03:47:30.562Z,100.00
2022-08-05T03:50:02.434Z,100.00
2022-08-05T03:52:48.778Z,100.00
2022-08-05T03:56:05.517Z,100.00
2022-08-05T03:58:29.116Z,100.00
2022-08-05T04:01:00.029Z,100.00
2022-08-05T04:03:29.322Z,100.00
2022-08-05T04:05:59.140Z,100.00
2022-08-05T04:08:34.774Z,100.00
2022-08-05T04:11:05.983Z,100.00
2022-08-05T04:13:51.059Z,100.00
2022-08-05T04:16:24.855Z,100.00
2022-08-05T04:18:54.770Z,100.00
2022-08-05T04:22:09.302Z,100.00
2022-08-05T04:24:52.747Z,100.00
2022-08-05T04:27:33.092Z,100.00
2022-08-05T04:30:09.188Z,100.00
2022-08-05T04:32:40.042Z,100.00
2022-08-05T04:35:19.841Z,100.00
2022-08-05T04:38:02.880Z,100.00
2022-08-05T04:40:57.377Z,100.00
2022-08-05T04:43:26.090Z,100.00
2022-08-05T04:48:41.271Z,100.00
2022-08-05T04:51:11.126Z,100.00
2022-08-05T04:53:38.890Z,100.00
2022-08-05T04:56:14.515Z,100.00
2022-08-05T04:58:56.585Z,100.00
2022-08-05T05:02:06.140Z,100.00
2022-08-05T05:04:10.781Z,100.00
2022-08-05T05:06:44.720Z,100.00
2022-08-05T05:09:17.599Z,100.00
2022-08-05T05:11:54.544Z,100.00
2022-08-05T05:14:31.586Z,100.00
2022-08-05T05:16:59.506Z,100.00
2022-08-05T05:19:26.662Z,100.00
2022-08-05T05:22:03.682Z,100.00
2022-08-05T05:24:57.527Z,100.00
2022-08-05T05:27:45.847Z,100.00
2022-08-05T05:30:31.107Z,100.00
2022-08-05T05:33:09.162Z,100.00
2022-08-05T05:35:45.006Z,100.00
2022-08-05T05:38:13.156Z,100.00
2022-08-05T05:40:48.383Z,100.00
2022-08-05T05:43:28.193Z,100.00
2022-08-05T05:46:08.483Z,100.00
2022-08-05T05:48:41.895Z,100.00
2022-08-05T05:51:15.772Z,100.00
2022-08-05T05:53:45.936Z,100.00
2022-08-05T05:56:26.074Z,100.00
2022-08-05T05:59:05.706Z,100.00
2022-08-05T06:01:37.796Z,100.00
2022-08-05T06:04:14.574Z,100.00
2022-08-05T06:06:43.193Z,100.00
2022-08-05T06:09:17.637Z,100.00
2022-08-05T06:12:00.035Z,100.00
2022-08-05T06:14:30.003Z,100.00
2022-08-05T06:16:57.925Z,100.00
2022-08-05T06:19:26.043Z,100.00
2022-08-05T06:22:01.145Z,99.67
2022-08-05T06:24:27.770Z,99.41
2022-08-05T06:26:55.101Z,98.35
2022-08-05T06:29:25.063Z,98.65
2022-08-05T06:32:25.190Z,98.68
2022-08-05T06:34:57.842Z,98.47
2022-08-05T06:37:56.273Z,96.77
2022-08-05T06:40:18.213Z,93.61
2022-08-05T06:42:51.537Z,93.08
2022-08-05T06:45:44.996Z,91.15
2022-08-05T06:48:47.023Z,91.82
2022-08-05T06:51:01.078Z,92.63
2022-08-05T06:53:29.033Z,93.88
2022-08-05T06:56:00.511Z,93.63
2022-08-05T06:58:34.849Z,93.68
2022-08-05T07:01:05.394Z,93.06
2022-08-05T07:03:33.318Z,92.42
2022-08-05T07:06:05.946Z,90.99
2022-08-05T07:08:47.534Z,90.91
2022-08-05T07:11:22.448Z,91.28
2022-08-05T07:14:20.319Z,90.76
2022-08-05T07:18:02.422Z,90.41
2022-08-05T07:20:31.178Z,89.25
2022-08-05T07:22:34.566Z,87.49
2022-08-05T07:25:22.006Z,86.65
2022-08-05T07:27:57.792Z,86.06
2022-08-05T07:30:33.762Z,85.32
2022-08-05T07:33:09.359Z,83.46
2022-08-05T07:36:01.877Z,83.03
2022-08-05T07:38:33.186Z,84.60
2022-08-05T07:42:07.315Z,84.98
2022-08-05T07:43:56.562Z,83.57
2022-08-05T07:46:29.703Z,81.46
2022-08-05T07:49:05.384Z,83.83
2022-08-05T07:51:37.281Z,85.02
2022-08-05T07:54:10.137Z,85.39
2022-08-05T07:57:00.125Z,85.25
2022-08-05T07:59:39.076Z,86.10
2022-08-05T08:02:15.899Z,85.22
2022-08-05T08:04:49.535Z,84.49
2022-08-05T08:07:22.979Z,83.10
2022-08-05T08:09:52.366Z,81.74
2022-08-05T08:12:37.082Z,76.51
2022-08-05T08:15:15.291Z,72.02
2022-08-05T08:17:52.626Z,66.32
2022-08-05T08:20:59.740Z,63.46
2022-08-05T08:23:59.903Z,62.38
2022-08-05T08:25:59.348Z,64.22
2022-08-05T08:28:36.468Z,66.24
2022-08-05T08:31:08.113Z,63.28
2022-08-05T08:33:37.500Z,64.04
2022-08-05T08:36:38.255Z,68.54
2022-08-05T08:38:56.754Z,71.38
2022-08-05T08:41:51.808Z,70.84
2022-08-05T08:45:24.390Z,68.05
2022-08-05T08:47:47.626Z,60.51
2022-08-05T08:50:12.900Z,57.62
2022-08-05T08:52:51.534Z,54.43
2022-08-05T08:55:32.024Z,56.68
2022-08-05T08:58:13.181Z,60.19
2022-08-05T09:00:42.309Z,61.68
2022-08-05T09:03:11.287Z,61.60
2022-08-05T09:06:08.809Z,60.85
2022-08-05T09:08:27.510Z,58.52
2022-08-05T09:10:57.931Z,56.18
2022-08-05T09:13:25.084Z,56.22
2022-08-05T09:15:59.835Z,54.27
2022-08-05T09:18:27.013Z,55.37
2022-08-05T09:20:54.143Z,55.02
2022-08-05T09:23:37.264Z,54.88
2022-08-05T09:26:22.240Z,53.71
2022-08-05T09:28:49.446Z,54.72
2022-08-05T09:31:43.313Z,53.19
2022-08-05T09:34:06.320Z,53.05
2022-08-05T09:36:55.859Z,53.57
2022-08-05T09:39:27.715Z,53.06
2022-08-05T09:42:28.130Z,52.07
2022-08-05T09:45:03.191Z,51.93
2022-08-05T09:47:56.295Z,52.23
2022-08-05T09:50:44.492Z,52.04
2022-08-05T09:53:23.068Z,49.69
2022-08-05T09:56:03.935Z,50.32
2022-08-05T09:58:32.001Z,47.42
2022-08-05T10:01:14.697Z,47.58
2022-08-05T10:04:10.055Z,46.77
2022-08-05T10:06:54.909Z,46.43
2022-08-05T10:09:27.998Z,44.47
2022-08-05T10:12:33.332Z,44.32
2022-08-05T10:15:26.052Z,44.68
2022-08-05T10:18:22.406Z,44.74
2022-08-05T10:20:56.654Z,44.57
2022-08-05T10:23:56.065Z,45.37
2022-08-05T10:26:16.893Z,45.52
2022-08-05T10:28:46.585Z,45.89
2022-08-05T10:32:48.301Z,44.64
2022-08-05T10:34:04.038Z,43.88
2022-08-05T10:36:37.045Z,43.80
2022-08-05T10:39:24.464Z,44.42
2022-08-05T10:42:18.790Z,45.35
2022-08-05T10:44:59.692Z,46.65
2022-08-05T10:47:36.694Z,47.16
2022-08-05T10:50:32.146Z,46.07
2022-08-05T10:53:01.818Z,46.35
2022-08-05T10:55:38.539Z,47.57
2022-08-05T10:58:21.518Z,47.36
2022-08-05T11:01:11.717Z,46.29
2022-08-05T11:04:03.780Z,47.87
2022-08-05T11:06:35.195Z,49.78
2022-08-05T11:09:39.255Z,51.96
2022-08-05T11:12:45.200Z,52.36
2022-08-05T11:15:59.044Z,52.09
2022-08-05T11:21:57.929Z,50.21
2022-08-05T11:24:30.609Z,48.87
2022-08-05T11:27:51.491Z,48.55
2022-08-05T11:30:27.259Z,49.83
2022-08-05T11:33:46.049Z,50.83
2022-08-05T11:36:34.729Z,51.13
2022-08-05T11:39:08.564Z,47.24
2022-08-05T11:42:01.311Z,44.71
2022-08-05T11:44:52.720Z,44.13
2022-08-05T11:47:22.155Z,41.03
2022-08-05T11:50:08.782Z,39.15
2022-08-05T11:52:35.589Z,41.10
2022-08-05T11:55:07.708Z,40.74
2022-08-05T11:58:08.679Z,36.74
2022-08-05T12:00:31.273Z,39.57
2022-08-05T12:02:58.280Z,38.59
2022-08-05T12:05:32.285Z,38.79
2022-08-05T12:08:09.926Z,40.37
2022-08-05T12:10:45.412Z,42.57
2022-08-05T12:13:17.368Z,43.14
2022-08-05T12:15:56.028Z,43.54
2022-08-05T12:18:33.145Z,43.11
2022-08-05T12:21:11.279Z,42.77
2022-08-05T12:24:04.856Z,41.40
2022-08-05T12:26:32.362Z,41.28
2022-08-05T12:28:59.994Z,41.80
2022-08-05T12:31:40.651Z,41.09
2022-08-05T12:34:14.704Z,40.74
2022-08-05T12:36:48.953Z,40.83
2022-08-05T12:39:15.827Z,41.91
2022-08-05T12:41:43.598Z,41.55
2022-08-05T12:44:14.243Z,40.40
2022-08-05T12:46:45.713Z,39.87
2022-08-05T12:49:19.076Z,40.27
2022-08-05T12:52:12.831Z,39.70
2022-08-05T12:54:49.794Z,37.98
2022-08-05T12:57:18.002Z,38.54
2022-08-05T13:01:57.259Z,37.46
2022-08-05T13:02:37.323Z,38.27
2022-08-05T13:05:07.727Z,39.01
2022-08-05T13:10:24.340Z,40.91
2022-08-05T13:12:58.055Z,41.13
2022-08-05T13:15:41.997Z,41.41
2022-08-05T13:18:19.802Z,41.78
2022-08-05T13:20:49.193Z,41.70
2022-08-05T13:23:22.272Z,41.86
2022-08-05T13:25:59.258Z,42.22
2022-08-05T13:28:27.382Z,41.73
2022-08-05T13:30:54.029Z,40.27
2022-08-05T13:34:23.515Z,40.02
2022-08-05T13:36:11.406Z,40.30
2022-08-05T13:38:42.702Z,40.23
2022-08-05T13:41:13.641Z,40.78
2022-08-05T13:43:54.528Z,40.36
2022-08-05T13:46:44.375Z,40.79
2022-08-05T13:49:11.866Z,40.75
2022-08-05T13:51:40.276Z,40.37
2022-08-05T13:54:13.204Z,39.45
2022-08-05T13:56:45.262Z,39.59
2022-08-05T13:59:24.008Z,39.27
2022-08-05T14:01:58.866Z,39.44
2022-08-05T14:04:51.326Z,40.24
2022-08-05T14:07:26.423Z,40.33
2022-08-05T14:10:18.835Z,40.44
2022-08-05T14:12:48.645Z,42.21
2022-08-05T14:16:07.366Z,43.37
2022-08-05T14:18:03.964Z,44.01
2022-08-05T14:20:31.897Z,43.94
2022-08-05T14:22:59.509Z,44.18
2022-08-05T14:25:28.110Z,45.00
2022-08-05T14:27:55.742Z,45.41
2022-08-05T14:30:22.690Z,45.74
2022-08-05T14:32:53.174Z,44.96
2022-08-05T14:35:20.825Z,45.56
2022-08-05T14:37:55.065Z,44.64
2022-08-05T14:40:24.141Z,44.17
2022-08-05T14:42:51.928Z,44.55
2022-08-05T14:45:18.765Z,43.74
2022-08-05T14:48:05.427Z,43.30
2022-08-05T14:50:33.260Z,43.46
2022-08-05T14:53:06.880Z,43.73
2022-08-05T14:55:39.488Z,41.63
2022-08-05T14:58:10.879Z,41.99
2022-08-05T15:00:59.182Z,41.55
2022-08-05T15:03:33.330Z,40.75
2022-08-05T15:06:07.979Z,40.41
2022-08-05T15:08:59.673Z,41.27
2022-08-05T15:11:50.920Z,42.51
2022-08-05T15:14:34.275Z,44.03
2022-08-05T15:17:03.726Z,44.28
2022-08-05T15:19:31.665Z,44.32
2022-08-05T15:22:01.260Z,45.29
2022-08-05T15:24:29.490Z,45.82
2022-08-05T15:26:59.329Z,46.09
2022-08-05T15:29:29.752Z,46.39
2022-08-05T15:32:02.351Z,46.33
2022-08-05T15:34:33.819Z,47.25
2022-08-05T15:37:06.086Z,47.39
2022-08-05T15:41:02.074Z,48.49
2022-08-05T15:42:53.436Z,48.50
2022-08-05T15:45:10.439Z,49.55
2022-08-05T15:47:38.426Z,49.88
2022-08-05T15:50:07.750Z,50.72
2022-08-05T15:52:53.226Z,50.99
2022-08-05T15:56:02.593Z,50.99
2022-08-05T15:58:16.805Z,52.38
2022-08-05T16:01:03.563Z,51.97
2022-08-05T16:03:32.674Z,52.71
2022-08-05T16:06:01.280Z,52.60
2022-08-05T16:08:30.716Z,53.05
2022-08-05T16:10:58.708Z,53.13
2022-08-05T16:13:34.444Z,51.89
2022-08-05T16:16:05.477Z,52.49
2022-08-05T16:18:35.372Z,52.78
2022-08-05T16:21:20.798Z,52.66
2022-08-05T16:24:12.831Z,51.46
2022-08-05T16:27:01.892Z,52.42
2022-08-05T16:29:31.109Z,52.67
2022-08-05T16:32:04.643Z,54.17
2022-08-05T16:34:31.629Z,54.65
2022-08-05T16:36:58.670Z,54.79
2022-08-05T16:40:06.410Z,54.04
2022-08-05T16:42:18.446Z,53.61
2022-08-05T16:44:57.208Z,53.13
2022-08-05T16:47:28.695Z,53.53
2022-08-05T16:50:07.681Z,53.95
2022-08-05T16:52:37.551Z,53.66
2022-08-05T16:55:05.377Z,54.96
2022-08-05T16:58:00.097Z,54.79
2022-08-05T17:00:26.054Z,53.70
2022-08-05T17:03:03.039Z,54.50
2022-08-05T17:05:30.525Z,54.73
2022-08-05T17:07:58.042Z,55.01
2022-08-05T17:10:26.412Z,55.00
2022-08-05T17:12:57.694Z,55.03
2022-08-05T17:15:24.777Z,54.78
2022-08-05T17:18:14.104Z,55.65
2022-08-05T17:20:44.816Z,55.01
2022-08-05T17:24:04.916Z,54.27
2022-08-05T17:25:59.686Z,54.24
2022-08-05T17:28:29.349Z,52.97
2022-08-05T17:30:56.572Z,52.04
2022-08-05T17:33:25.451Z,50.04
2022-08-05T17:36:08.081Z,49.67
2022-08-05T17:38:39.892Z,49.49
2022-08-05T17:41:11.720Z,50.00
2022-08-05T17:43:54.723Z,51.10
2022-08-05T17:46:24.193Z,50.39
2022-08-05T17:48:50.953Z,50.23
2022-08-05T17:51:21.845Z,49.89
2022-08-05T17:53:54.369Z,49.45
2022-08-05T17:56:21.716Z,48.49
2022-08-05T17:58:49.757Z,47.98
2022-08-05T18:01:18.707Z,47.24
2022-08-05T18:03:58.467Z,47.15
2022-08-05T18:06:31.138Z,47.15
2022-08-05T18:08:58.712Z,47.78
2022-08-05T18:11:32.934Z,48.44
2022-08-05T18:14:03.178Z,48.72
2022-08-05T18:16:35.189Z,48.68
2022-08-05T18:19:13.696Z,48.51
2022-08-05T18:22:07.332Z,48.94
2022-08-05T18:24:29.743Z,49.50
2022-08-05T18:26:56.501Z,50.90
2022-08-05T18:29:40.766Z,52.94
2022-08-05T18:32:12.640Z,54.61
2022-08-05T18:34:43.190Z,54.78
2022-08-05T18:37:12.701Z,55.43
2022-08-05T18:41:50.741Z,56.63
2022-08-05T18:42:43.788Z,57.41
2022-08-05T18:45:13.183Z,57.74
2022-08-05T18:47:42.798Z,58.16
2022-08-05T18:50:45.364Z,58.36
2022-08-05T18:53:19.260Z,58.83
2022-08-05T18:55:52.472Z,59.55
2022-08-05T18:58:29.652Z,59.43
2022-08-05T19:01:02.244Z,59.83
2022-08-05T19:03:53.234Z,60.13
2022-08-05T19:06:22.412Z,59.94
2022-08-05T19:09:04.312Z,59.81
2022-08-05T19:11:59.186Z,60.05
2022-08-05T19:14:53.450Z,60.58
2022-08-05T19:17:09.085Z,61.34
2022-08-05T19:19:48.504Z,61.22
2022-08-05T19:22:17.195Z,61.73
2022-08-05T19:24:54.346Z,62.87
2022-08-05T19:27:30.533Z,62.59
2022-08-05T19:29:58.438Z,62.91
2022-08-05T19:32:27.783Z,63.40
2022-08-05T19:34:58.079Z,64.51
2022-08-05T19:37:47.189Z,64.53
2022-08-05T19:40:36.074Z,64.23
2022-08-05T19:43:05.315Z,64.22
2022-08-05T19:45:36.841Z,64.88
2022-08-05T19:48:05.317Z,64.97
2022-08-05T19:50:32.204Z,65.17
2022-08-05T19:53:09.502Z,65.40
2022-08-05T19:56:14.955Z,64.58
2022-08-05T19:58:29.426Z,65.60
2022-08-05T20:00:57.687Z,65.30
2022-08-05T20:03:26.193Z,65.26
2022-08-05T20:05:56.603Z,65.44
2022-08-05T20:08:24.855Z,66.36
2022-08-05T20:10:52.401Z,66.53
2022-08-05T20:13:25.800Z,66.42
2022-08-05T20:16:13.778Z,67.66
2022-08-05T20:18:46.715Z,68.11
2022-08-05T20:21:22.891Z,67.10
2022-08-05T20:23:53.124Z,67.61
2022-08-05T20:26:26.842Z,67.59
2022-08-05T20:28:57.638Z,68.16
2022-08-05T20:31:42.034Z,68.50
2022-08-05T20:34:12.490Z,69.23
2022-08-05T20:36:43.431Z,69.00
2022-08-05T20:39:16.615Z,69.05
2022-08-05T20:41:45.169Z,69.96
2022-08-05T20:44:17.822Z,70.07
2022-08-05T20:47:01.896Z,70.46
2022-08-05T20:49:38.126Z,70.15
2022-08-05T20:52:08.911Z,70.68
2022-08-05T20:54:42.916Z,71.35
2022-08-05T20:57:42.060Z,72.23
2022-08-05T21:00:40.376Z,72.27
2022-08-05T21:03:06.738Z,71.97
2022-08-05T21:05:48.067Z,72.02
2022-08-05T21:08:28.200Z,72.38
2022-08-05T21:11:12.935Z,72.70
2022-08-05T21:13:59.610Z,72.76
2022-08-05T21:16:30.169Z,73.24
2022-08-05T21:19:00.929Z,73.23
2022-08-05T21:21:39.339Z,73.50
2022-08-05T21:24:15.640Z,75.06
2022-08-05T21:26:47.196Z,73.78
2022-08-05T21:29:19.972Z,74.88
2022-08-05T21:31:51.025Z,74.65
2022-08-05T21:34:19.845Z,75.20
2022-08-05T21:36:49.129Z,76.04
2022-08-05T21:39:17.055Z,75.36
2022-08-05T21:42:01.467Z,76.32
2022-08-05T21:44:30.398Z,76.34
2022-08-05T21:46:58.510Z,76.99
2022-08-05T21:49:58.653Z,77.04
2022-08-05T21:52:21.395Z,77.34
2022-08-05T21:54:55.053Z,78.37
2022-08-05T21:57:37.659Z,78.07
2022-08-05T22:00:12.696Z,78.15
2022-08-05T22:02:42.667Z,78.29
2022-08-05T22:05:14.318Z,79.08
2022-08-05T22:07:58.258Z,79.28
2022-08-05T22:10:27.476Z,78.38
2022-08-05T22:13:08.815Z,80.17
2022-08-05T22:16:02.601Z,79.33
2022-08-05T22:18:33.463Z,80.07
2022-08-05T22:21:00.803Z,80.28
2022-08-05T22:24:02.814Z,80.94
2022-08-05T22:26:54.551Z,80.72
2022-08-05T22:29:26.659Z,80.65
2022-08-05T22:31:59.725Z,82.09
2022-08-05T22:34:32.283Z,81.08
2022-08-05T22:36:59.723Z,81.18
2022-08-05T22:39:32.924Z,81.49
2022-08-05T22:42:12.412Z,81.58
2022-08-05T22:44:48.574Z,82.82
2022-08-05T22:47:29.115Z,82.04
2022-08-05T22:50:19.304Z,81.66
2022-08-05T22:52:44.043Z,82.50
2022-08-05T22:55:19.399Z,83.27
2022-08-05T22:57:49.756Z,83.33
2022-08-05T23:00:18.221Z,85.20
2022-08-05T23:02:48.391Z,83.71
2022-08-05T23:05:15.839Z,83.00
2022-08-05T23:07:44.795Z,84.05
2022-08-05T23:10:13.264Z,83.49
2022-08-05T23:12:43.913Z,83.58
2022-08-05T23:15:12.757Z,83.63
2022-08-05T23:18:01.401Z,83.09
2022-08-05T23:20:47.935Z,83.62
2022-08-05T23:23:15.982Z,86.16
2022-08-05T23:25:52.859Z,84.50
2022-08-05T23:28:23.931Z,84.41
2022-08-05T23:30:54.763Z,85.28
2022-08-05T23:33:26.265Z,85.72
2022-08-05T23:36:13.468Z,86.78
2022-08-05T23:38:43.568Z,85.65
2022-08-05T23:41:14.320Z,85.77
2022-08-05T23:44:03.164Z,86.51
2022-08-05T23:46:31.092Z,87.65
2022-08-05T23:48:59.848Z,86.30
2022-08-05T23:51:52.891Z,86.86
2022-08-05T23:54:33.714Z,86.05
2022-08-05T23:57:04.738Z,87.78
